Broadview, MT (59015)

11:17 PM MST on December 20, 2014 (GMT -0700)
RAWS HORSE THIEF MT US | Change Station
CLOSE
Current Station
Personal Weather Station
Location: Roundup, MT
Elevation: 3479 ft
Nearby Weather Stations

Elev 3479 ft 46.43 °N, 108.67 °W | Updated 38 minutes ago

Clear
Clear
33 °F
Feels Like 33 °F
N
2
Wind Variable Wind from West
Gusts 5.0 mph

Today
High -- | Low -- °F
--% Chance of Precip.
Yesterday
High -- | Low -- °F
Precip. -- in
7:54 AM 4:31 PM
Waning Crescent, 1% visible
Pressure 29.76 in
Visibility 10.0 miles
Clouds Mostly Cloudy 21000 ft
Windchill 33 °F
Dew Point 23 °F
Humidity 67%
Rainfall 0.00 in
Snow Depth Not available.
UV 0 out of 12
Pollen .10 out of 12
Air Quality Not available.
Flu Activity Not available.
METAR KBIL 210553Z 24014KT 10SM BKN210 00/M06 A2969 RMK AO2 SLP077 T00001061 10028 20000 56020

More Conditions Fewer Conditions

Pressure 29.76 in
Visibility 10.0 miles
Clouds Mostly Cloudy 21000 ft
Windchill 33 °F
Dew Point 23 °F
Humidity 67%
Rainfall 0.00 in
Snow Depth Not available.
UV 0 out of 12
Pollen .10 out of 12
Air Quality Not available.
Flu Activity Not available.
METAR KBIL 210553Z 24014KT 10SM BKN210 00/M06 A2969 RMK AO2 SLP077 T00001061 10028 20000 56020

More Conditions Fewer Conditions

10-Day Weather Forecast

Almanac

Astronomy

Dec. 20, 2014 Rise Set
Actual Time
Civil Twilight
Nautical Twilight
Astronomical Twilight
Moon
Length of Visible Light
Length of Day
Tomorrow will be .
, % of the Moon is Illuminated

Today's Extremes

State Highs State Lows

Community

WunderPhotos

Upload Photos

1,779,360 photos uploaded!

WunderBlogs® & News

Nearby

Air Quality

  Air Quality AQ Index Pollutant
Not available.

Snow Depth

Station Depth Elevation

Earthquake Activity

City Distance Mag. Time & Date
Minimum magnitude displayed is 2.5.

Coastal Water Temperatures

Place Temperature

Nearby Weather Stations